Ithaca Tompkins Regional Airport
KITH : now visible

Airfield :











YOU CAN JOIN US ON...

 
LOGIN :

Register | Disclaimer

   EN    FR    IT 

 









Legend :    VFR   Marginal VFR   IFR   Intensive IFR   Very Intensive IFR
Visi :
Ceiling :
>= 8 km
>= 3000ft
5 to 8 km
1000 to 3000 ft
1500m to 5 km
500 to 1000 ft
800 to 1500m
200 to 500 ft
< 800m
< 200 ft
Symbols :   Thunderstorms  Fog  Heavy snow  Heavy precipitations  Wind > 20 kt






- Airport Elevation : 1099 ft
- IATA code : ITH


KITH - Ithaca Tompkins Regional

CURRENT METAR :
  • 081756Z 31009KT 10SM BKN016 OVC029 11/07 A2963 RMK AO2 SLP036 T01110067 10111 20061 53002

EXPIRED METARs :
  • 081656Z 32008KT 10SM OVC016 11/07 A2963 RMK AO2 SLP035 T01060067
  • 081556Z 30007KT 10SM OVC009 09/07 A2962 RMK AO2 SLP033 T00940072

TAF KITH
Valid from the 08 at 18:00 until the 09 at 18:00 UTC


081744Z 0818/0918 32010KT P6SM SCT018 BKN025
FM082000 31009KT P6SM BKN035
FM090200 13005KT P6SM BKN035
FM091000 14009KT 6SM -SHRA SCT020 OVC035
FM091200 15012KT 5SM -SHRA OVC020 WS020/20046KT
FM091500 26015G25KT 3SM -SHRA OVC010
FM091700 30019G32KT P6SM BKN015



MET'MAP, your aeronautical weather chart ! - Copyright ORBIFLY December 2007 - Disclaimer

ORBIFLY MET'MAP TEAM :

Programming & Development : Alexandra Zaïnal
Concept & original design : Baudouin d'Aumeries
Assistance for programming : Marc-Olivier Méhu
Technical & hardware support : Manuel Goepfert

Contact : metmap@orbifly.com




SOURCES & CREDITS :

   NOAA       Earth
Advisory